createdAt,value
2022-10-13T00:00:07.461Z,9.28
2022-10-13T00:02:20.570Z,9.20
2022-10-13T00:04:32.590Z,9.33
2022-10-13T00:06:41.106Z,9.36
2022-10-13T00:08:49.741Z,9.34
2022-10-13T00:10:58.265Z,9.30
2022-10-13T00:13:10.914Z,9.22
2022-10-13T00:15:19.434Z,9.21
2022-10-13T00:17:27.913Z,9.17
2022-10-13T00:19:39.767Z,9.20
2022-10-13T00:21:49.268Z,9.20
2022-10-13T00:23:58.632Z,9.28
2022-10-13T00:26:09.095Z,9.23
2022-10-13T00:28:19.437Z,9.24
2022-10-13T00:30:27.513Z,9.23
2022-10-13T00:32:35.956Z,9.26
2022-10-13T00:34:49.859Z,9.32
2022-10-13T00:36:59.234Z,9.28
2022-10-13T00:39:08.454Z,9.19
2022-10-13T00:41:16.824Z,9.10
2022-10-13T00:43:28.451Z,9.12
2022-10-13T00:45:36.578Z,9.03
2022-10-13T00:47:49.143Z,9.09
2022-10-13T00:50:01.271Z,9.24
2022-10-13T00:52:09.508Z,9.30
2022-10-13T00:54:21.068Z,9.38
2022-10-13T00:56:30.795Z,9.52
2022-10-13T00:58:42.005Z,9.68
2022-10-13T01:00:53.314Z,9.71
2022-10-13T01:03:01.450Z,9.66
2022-10-13T01:05:12.738Z,9.72
2022-10-13T01:07:23.010Z,9.71
2022-10-13T01:09:37.693Z,9.68
2022-10-13T01:12:00.596Z,9.68
2022-10-13T01:14:17.067Z,9.77
2022-10-13T01:16:36.354Z,9.78
2022-10-13T01:18:51.590Z,9.62
2022-10-13T01:21:23.927Z,9.14
2022-10-13T01:24:07.940Z,8.92
2022-10-13T01:26:40.926Z,9.05
2022-10-13T01:29:13.808Z,9.19
2022-10-13T01:31:36.561Z,9.29
2022-10-13T01:33:53.160Z,9.38
2022-10-13T01:36:15.218Z,9.49
2022-10-13T01:38:32.339Z,9.60
2022-10-13T01:40:46.526Z,9.59
2022-10-13T01:43:02.152Z,9.61
2022-10-13T01:45:14.335Z,9.68
2022-10-13T01:47:26.845Z,9.71
2022-10-13T01:49:38.014Z,9.74
2022-10-13T01:51:47.530Z,9.68
2022-10-13T01:53:59.237Z,9.68
2022-10-13T01:56:07.681Z,9.74
2022-10-13T01:58:16.056Z,9.78
2022-10-13T02:00:26.241Z,9.78
2022-10-13T02:02:42.811Z,9.82
2022-10-13T02:04:59.868Z,9.84
2022-10-13T02:07:16.342Z,9.87
2022-10-13T02:09:31.033Z,9.84
2022-10-13T02:11:39.110Z,9.82
2022-10-13T02:13:50.778Z,9.89
2022-10-13T02:16:04.940Z,9.79
2022-10-13T02:18:18.237Z,9.79
2022-10-13T02:20:27.053Z,9.80
2022-10-13T02:22:42.271Z,9.82
2022-10-13T02:24:50.939Z,9.87
2022-10-13T02:27:00.701Z,9.84
2022-10-13T02:29:13.291Z,9.93
2022-10-13T02:31:21.430Z,9.97
2022-10-13T02:33:32.569Z,9.98
2022-10-13T02:35:41.497Z,10.08
2022-10-13T02:37:49.595Z,9.89
2022-10-13T02:39:58.318Z,9.92
2022-10-13T02:42:06.517Z,9.88
2022-10-13T02:44:14.587Z,9.92
2022-10-13T02:46:22.867Z,9.89
2022-10-13T02:48:33.680Z,9.87
2022-10-13T02:50:41.920Z,9.92
2022-10-13T02:52:50.353Z,9.85
2022-10-13T02:54:59.646Z,9.74
2022-10-13T02:57:07.994Z,9.77
2022-10-13T02:59:16.503Z,9.88
2022-10-13T03:01:25.209Z,9.79
2022-10-13T03:03:35.848Z,9.78
2022-10-13T03:05:44.271Z,9.78
2022-10-13T03:07:52.560Z,9.69
2022-10-13T03:10:01.620Z,9.71
2022-10-13T03:12:10.564Z,9.66
2022-10-13T03:14:18.667Z,9.63
2022-10-13T03:16:26.877Z,9.70
2022-10-13T03:18:38.944Z,9.61
2022-10-13T03:20:46.897Z,9.61
2022-10-13T03:22:56.251Z,9.62
2022-10-13T03:25:04.826Z,9.67
2022-10-13T03:27:14.468Z,9.65
2022-10-13T03:29:22.676Z,9.64
2022-10-13T03:31:31.954Z,9.71
2022-10-13T03:33:52.276Z,9.66
2022-10-13T03:36:02.579Z,9.64
2022-10-13T03:38:11.642Z,9.62
2022-10-13T03:40:21.467Z,9.57
2022-10-13T03:42:29.951Z,9.58
2022-10-13T03:44:38.374Z,9.46
2022-10-13T03:46:46.631Z,9.43
2022-10-13T03:48:58.273Z,9.35
2022-10-13T03:51:08.603Z,9.26
2022-10-13T03:53:16.619Z,9.23
2022-10-13T03:55:27.083Z,9.20
2022-10-13T03:57:35.281Z,9.17
2022-10-13T03:59:44.102Z,9.25
2022-10-13T04:01:52.184Z,9.27
2022-10-13T04:04:05.776Z,9.23
2022-10-13T04:06:14.299Z,9.25
2022-10-13T04:08:30.119Z,9.23
2022-10-13T04:10:40.238Z,9.30
2022-10-13T04:12:48.610Z,9.23
2022-10-13T04:14:56.901Z,9.26
2022-10-13T04:17:05.243Z,9.28
2022-10-13T04:19:18.041Z,9.31
2022-10-13T04:21:27.305Z,9.30
2022-10-13T04:23:35.551Z,9.26
2022-10-13T04:25:43.854Z,9.25
2022-10-13T04:27:54.427Z,9.19
2022-10-13T04:30:03.007Z,9.24
2022-10-13T04:32:12.187Z,9.18
2022-10-13T04:34:25.159Z,9.15
2022-10-13T04:36:35.755Z,9.14
2022-10-13T04:38:47.657Z,9.14
2022-10-13T04:40:55.977Z,9.12
2022-10-13T04:43:09.620Z,9.08
2022-10-13T04:45:18.184Z,9.08
2022-10-13T04:47:36.127Z,9.14
2022-10-13T04:49:47.698Z,9.19
2022-10-13T04:51:56.348Z,9.27
2022-10-13T04:54:05.792Z,9.33
2022-10-13T04:56:18.747Z,9.39
2022-10-13T04:58:27.025Z,9.48
2022-10-13T05:00:36.528Z,9.49
2022-10-13T05:02:46.659Z,9.56
2022-10-13T05:04:57.326Z,9.59
2022-10-13T05:07:16.931Z,9.61
2022-10-13T05:09:26.270Z,9.62
2022-10-13T05:11:39.095Z,9.59
2022-10-13T05:13:47.397Z,9.67
2022-10-13T05:15:55.779Z,9.58
2022-10-13T05:18:04.540Z,9.53
2022-10-13T05:20:17.851Z,9.52
2022-10-13T05:22:27.441Z,9.54
2022-10-13T05:24:41.224Z,9.61
2022-10-13T05:26:50.989Z,9.59
2022-10-13T05:28:59.637Z,9.61
2022-10-13T05:31:15.877Z,9.67
2022-10-13T05:33:24.269Z,9.66
2022-10-13T05:35:36.083Z,9.66
2022-10-13T05:37:44.872Z,9.70
2022-10-13T05:39:54.082Z,9.70
2022-10-13T05:42:03.386Z,9.63
2022-10-13T05:44:13.989Z,9.66
2022-10-13T05:46:35.205Z,9.59
2022-10-13T05:48:43.812Z,9.57
2022-10-13T05:50:55.353Z,9.62
2022-10-13T05:53:03.894Z,9.50
2022-10-13T05:55:15.173Z,9.48
2022-10-13T05:57:27.403Z,9.40
2022-10-13T05:59:42.367Z,9.47
2022-10-13T06:01:52.959Z,9.62
2022-10-13T06:04:04.836Z,9.59
2022-10-13T06:06:15.907Z,9.60
2022-10-13T06:08:26.153Z,9.54
2022-10-13T06:10:34.465Z,9.67
2022-10-13T06:12:42.983Z,9.73
2022-10-13T06:14:51.339Z,9.59
2022-10-13T06:16:59.916Z,9.50
2022-10-13T06:19:08.833Z,9.56
2022-10-13T06:21:22.341Z,9.59
2022-10-13T06:23:30.509Z,9.63
2022-10-13T06:25:39.706Z,9.68
2022-10-13T06:27:47.863Z,9.78
2022-10-13T06:29:56.389Z,9.84
2022-10-13T06:32:05.044Z,9.93
2022-10-13T06:34:12.994Z,10.03
2022-10-13T06:36:29.907Z,10.00
2022-10-13T06:38:43.137Z,10.05
2022-10-13T06:40:51.692Z,10.05
2022-10-13T06:43:02.386Z,9.99
2022-10-13T06:45:12.845Z,10.09
2022-10-13T06:47:21.457Z,10.16
2022-10-13T06:49:29.792Z,10.25
2022-10-13T06:51:40.733Z,10.37
2022-10-13T06:53:49.225Z,10.36
2022-10-13T06:56:04.175Z,10.34
2022-10-13T06:58:12.718Z,10.52
2022-10-13T07:00:21.508Z,10.34
2022-10-13T07:02:30.821Z,10.30
2022-10-13T07:04:38.871Z,10.31
2022-10-13T07:06:51.173Z,10.36
2022-10-13T07:08:59.825Z,10.40
2022-10-13T07:11:15.898Z,10.39
2022-10-13T07:13:30.455Z,10.40
2022-10-13T07:15:41.648Z,10.55
2022-10-13T07:17:49.852Z,10.48
2022-10-13T07:19:58.354Z,10.52
2022-10-13T07:22:15.481Z,10.36
2022-10-13T07:24:23.927Z,10.35
2022-10-13T07:26:32.671Z,10.39
2022-10-13T07:28:41.802Z,10.48
2022-10-13T07:30:50.250Z,10.59
2022-10-13T07:32:58.386Z,10.70
2022-10-13T07:35:07.392Z,10.72
2022-10-13T07:37:19.330Z,10.78
2022-10-13T07:39:28.607Z,10.88
2022-10-13T07:41:37.063Z,10.88
2022-10-13T07:43:45.213Z,10.99
2022-10-13T07:45:53.564Z,11.14
2022-10-13T07:48:02.339Z,11.49
2022-10-13T07:50:12.055Z,11.51
2022-10-13T07:52:23.354Z,11.53
2022-10-13T07:54:32.328Z,11.36
2022-10-13T07:56:41.198Z,11.48
2022-10-13T07:58:53.673Z,11.67
2022-10-13T08:01:04.087Z,11.94
2022-10-13T08:03:12.653Z,12.27
2022-10-13T08:05:22.852Z,12.57
2022-10-13T08:07:33.719Z,12.47
2022-10-13T08:09:41.808Z,12.77
2022-10-13T08:11:49.926Z,12.48
2022-10-13T08:14:01.144Z,12.55
2022-10-13T08:16:10.108Z,12.51
2022-10-13T08:18:18.407Z,12.66
2022-10-13T08:20:36.131Z,13.11
2022-10-13T08:22:52.441Z,13.31
2022-10-13T08:25:01.409Z,13.08
2022-10-13T08:27:14.885Z,13.45
2022-10-13T08:29:24.602Z,13.65
2022-10-13T08:31:33.316Z,13.76
2022-10-13T08:33:41.807Z,13.65
2022-10-13T08:35:50.918Z,13.55
2022-10-13T08:38:03.587Z,13.60
2022-10-13T08:40:17.623Z,13.34
2022-10-13T08:42:26.150Z,13.43
2022-10-13T08:45:10.756Z,13.63
2022-10-13T08:47:15.495Z,13.57
2022-10-13T08:49:23.553Z,13.42
2022-10-13T08:51:32.838Z,13.21
2022-10-13T08:53:47.096Z,13.57
2022-10-13T08:55:59.307Z,13.97
2022-10-13T08:58:16.637Z,13.88
2022-10-13T09:00:25.099Z,14.45
2022-10-13T09:02:34.333Z,14.27
2022-10-13T09:04:46.719Z,14.02
2022-10-13T09:06:57.925Z,14.40
2022-10-13T09:09:10.949Z,14.42
2022-10-13T09:11:19.583Z,14.66
2022-10-13T09:13:29.046Z,15.06
2022-10-13T09:15:46.591Z,15.08
2022-10-13T09:18:12.658Z,15.35
2022-10-13T09:20:24.663Z,15.51
2022-10-13T09:22:35.477Z,15.76
2022-10-13T09:24:46.360Z,15.42
2022-10-13T09:27:08.640Z,16.11
2022-10-13T09:29:24.643Z,16.82
2022-10-13T09:31:34.032Z,16.99
2022-10-13T09:33:42.175Z,17.25
2022-10-13T09:35:52.916Z,16.46
2022-10-13T09:38:07.438Z,16.46
2022-10-13T09:40:24.351Z,17.11
2022-10-13T09:42:34.162Z,16.78
2022-10-13T09:44:42.816Z,16.84
2022-10-13T09:46:55.092Z,17.05
2022-10-13T09:49:08.829Z,15.68
2022-10-13T09:51:34.395Z,16.46
2022-10-13T09:53:52.084Z,16.33
2022-10-13T09:56:22.781Z,15.89
2022-10-13T09:58:33.958Z,15.51
2022-10-13T10:00:43.073Z,15.91
2022-10-13T10:02:58.309Z,15.95
2022-10-13T10:05:17.099Z,15.91
2022-10-13T10:07:33.491Z,16.09
2022-10-13T10:09:47.505Z,15.96
2022-10-13T10:12:02.177Z,16.17
2022-10-13T10:14:23.489Z,16.27
2022-10-13T10:16:36.450Z,16.51
2022-10-13T10:18:52.789Z,16.92
2022-10-13T10:21:14.602Z,16.90
2022-10-13T10:23:33.430Z,17.20
2022-10-13T10:25:45.686Z,16.67
2022-10-13T10:28:18.419Z,16.81
2022-10-13T10:30:26.551Z,16.73
2022-10-13T10:32:45.565Z,15.98
2022-10-13T10:34:57.936Z,15.98
2022-10-13T10:37:25.121Z,16.15
2022-10-13T10:39:39.896Z,16.44
2022-10-13T10:41:54.511Z,16.38
2022-10-13T10:44:12.007Z,15.84
2022-10-13T10:46:24.790Z,15.89
2022-10-13T10:48:38.226Z,16.41
2022-10-13T10:50:46.461Z,16.50
2022-10-13T10:53:01.459Z,16.61
2022-10-13T10:55:20.508Z,16.72
2022-10-13T10:57:37.022Z,16.57
2022-10-13T10:59:58.273Z,16.51
2022-10-13T11:02:22.257Z,16.36
2022-10-13T11:04:40.320Z,16.63
2022-10-13T11:06:48.235Z,16.88
2022-10-13T11:08:58.461Z,16.93
2022-10-13T11:11:38.440Z,17.12
2022-10-13T11:13:57.777Z,17.26
2022-10-13T11:16:28.679Z,16.94
2022-10-13T11:19:06.085Z,17.42
2022-10-13T11:21:14.754Z,17.65
2022-10-13T11:23:35.763Z,17.42
2022-10-13T11:25:46.817Z,17.51
2022-10-13T11:27:55.415Z,17.55
2022-10-13T11:30:05.302Z,17.57
2022-10-13T11:32:55.723Z,17.17
2022-10-13T11:35:06.249Z,17.37
2022-10-13T11:37:19.884Z,17.44
2022-10-13T11:40:04.752Z,17.51
2022-10-13T11:42:35.309Z,17.64
2022-10-13T11:44:53.903Z,17.50
2022-10-13T11:47:11.167Z,17.36
2022-10-13T11:49:49.769Z,17.33
2022-10-13T11:52:15.150Z,17.47
2022-10-13T11:54:30.859Z,17.57
2022-10-13T11:56:48.680Z,17.46
2022-10-13T11:58:56.998Z,17.67
2022-10-13T12:01:10.352Z,17.64
2022-10-13T12:03:24.557Z,17.37
2022-10-13T12:05:36.311Z,17.55
2022-10-13T12:07:45.412Z,17.71
2022-10-13T12:09:57.505Z,17.70
2022-10-13T12:12:16.023Z,17.61
2022-10-13T12:14:27.227Z,17.83
2022-10-13T12:16:36.149Z,17.38
2022-10-13T12:18:45.246Z,17.44
2022-10-13T12:21:00.857Z,17.99
2022-10-13T12:23:20.939Z,17.66
2022-10-13T12:25:33.831Z,17.31
2022-10-13T12:27:49.012Z,17.05
2022-10-13T12:29:56.861Z,17.03
2022-10-13T12:32:06.515Z,17.08
2022-10-13T12:34:22.410Z,17.05
2022-10-13T12:36:36.581Z,17.36
2022-10-13T12:38:53.776Z,17.37
2022-10-13T12:41:01.845Z,18.02
2022-10-13T12:43:10.134Z,18.15
2022-10-13T12:45:20.809Z,17.88
2022-10-13T12:47:40.073Z,18.15
2022-10-13T12:49:48.075Z,17.89
2022-10-13T12:52:08.717Z,17.93
2022-10-13T12:54:26.267Z,17.19
2022-10-13T12:56:36.894Z,17.39
2022-10-13T12:58:46.485Z,17.01
2022-10-13T13:01:09.340Z,17.10
2022-10-13T13:03:26.330Z,17.50
2022-10-13T13:05:38.764Z,17.16
2022-10-13T13:07:56.042Z,17.28
2022-10-13T13:10:06.783Z,17.01
2022-10-13T13:12:30.785Z,17.05
2022-10-13T13:14:41.319Z,17.13
2022-10-13T13:17:06.003Z,16.94
2022-10-13T13:19:25.283Z,17.22
2022-10-13T13:21:33.732Z,17.12
2022-10-13T13:23:51.001Z,17.39
2022-10-13T13:26:16.327Z,16.94
2022-10-13T13:28:24.633Z,17.11
2022-10-13T13:30:33.106Z,16.91
2022-10-13T13:32:40.832Z,16.48
2022-10-13T13:34:49.024Z,16.46
2022-10-13T13:36:56.912Z,16.47
2022-10-13T13:39:09.791Z,16.64
2022-10-13T13:41:19.520Z,16.30
2022-10-13T13:43:27.307Z,16.32
2022-10-13T13:45:38.384Z,16.02
2022-10-13T13:47:48.601Z,16.09
2022-10-13T13:49:58.861Z,16.05
2022-10-13T13:52:07.505Z,15.96
2022-10-13T13:54:18.085Z,15.95
2022-10-13T13:56:25.835Z,15.89
2022-10-13T13:58:34.008Z,15.89
2022-10-13T14:00:42.068Z,15.97
2022-10-13T14:02:50.269Z,15.86
2022-10-13T14:04:58.483Z,15.83
2022-10-13T14:07:08.569Z,15.73
2022-10-13T14:09:19.483Z,15.72
2022-10-13T14:11:27.648Z,15.60
2022-10-13T14:13:36.766Z,15.71
2022-10-13T14:15:46.954Z,15.82
2022-10-13T14:17:57.541Z,15.80
2022-10-13T14:20:05.867Z,15.80
2022-10-13T14:22:18.469Z,15.85
2022-10-13T14:24:29.737Z,15.81
2022-10-13T14:26:37.836Z,15.82
2022-10-13T14:28:47.107Z,15.77
2022-10-13T14:30:55.645Z,15.67
2022-10-13T14:33:05.256Z,15.57
2022-10-13T14:35:13.468Z,15.59
2022-10-13T14:37:23.287Z,15.63
2022-10-13T14:39:35.250Z,15.58
2022-10-13T14:41:45.919Z,15.59
2022-10-13T14:43:56.836Z,15.63
2022-10-13T14:46:06.571Z,15.67
2022-10-13T14:48:15.390Z,15.67
2022-10-13T14:50:23.889Z,15.68
2022-10-13T14:52:37.795Z,15.78
2022-10-13T14:54:48.635Z,15.78
2022-10-13T14:56:56.893Z,15.66
2022-10-13T14:59:06.806Z,15.59
2022-10-13T15:01:18.137Z,15.48
2022-10-13T15:03:27.999Z,15.52
2022-10-13T15:05:36.552Z,15.51
2022-10-13T15:07:45.115Z,15.58
2022-10-13T15:10:11.738Z,15.58
2022-10-13T15:12:20.212Z,15.62
2022-10-13T15:14:28.627Z,15.58
2022-10-13T15:16:38.150Z,15.61
2022-10-13T15:18:46.570Z,15.65
2022-10-13T15:20:55.918Z,15.79
2022-10-13T15:23:04.427Z,15.73
2022-10-13T15:25:15.395Z,15.79
2022-10-13T15:27:23.645Z,15.88
2022-10-13T15:29:31.951Z,15.84
2022-10-13T15:31:40.367Z,15.82
2022-10-13T15:33:51.874Z,15.86
2022-10-13T15:36:02.586Z,15.90
2022-10-13T15:38:11.197Z,15.87
2022-10-13T15:40:22.012Z,15.80
2022-10-13T15:42:30.423Z,15.83
2022-10-13T15:45:04.548Z,15.90
2022-10-13T15:47:09.390Z,15.81
2022-10-13T15:49:18.726Z,15.82
2022-10-13T15:51:27.501Z,15.81
2022-10-13T15:53:35.713Z,15.70
2022-10-13T15:55:46.528Z,15.67
2022-10-13T15:57:55.079Z,15.52
2022-10-13T16:00:03.757Z,15.50
2022-10-13T16:02:20.429Z,15.36
2022-10-13T16:04:32.298Z,15.31
2022-10-13T16:06:43.299Z,15.31
2022-10-13T16:08:51.923Z,15.09
2022-10-13T16:11:02.876Z,15.05
2022-10-13T16:13:12.749Z,14.89
2022-10-13T16:15:21.749Z,14.81
2022-10-13T16:17:29.824Z,14.79
2022-10-13T16:19:38.542Z,14.77
2022-10-13T16:21:47.181Z,14.64
2022-10-13T16:23:56.998Z,14.63
2022-10-13T16:26:08.818Z,14.50
2022-10-13T16:28:17.579Z,14.56
2022-10-13T16:30:25.470Z,14.44
2022-10-13T16:32:35.683Z,14.45
2022-10-13T16:34:45.343Z,14.33
2022-10-13T16:36:57.096Z,14.36
2022-10-13T16:39:04.891Z,14.24
2022-10-13T16:41:17.802Z,14.13
2022-10-13T16:43:26.645Z,14.07
2022-10-13T16:45:55.278Z,14.01
2022-10-13T16:48:02.374Z,13.91
2022-10-13T16:50:12.359Z,13.78
2022-10-13T16:52:20.989Z,13.78
2022-10-13T16:54:29.280Z,13.71
2022-10-13T16:56:40.171Z,13.60
2022-10-13T16:58:47.873Z,13.64
2022-10-13T17:00:55.754Z,13.76
2022-10-13T17:03:04.000Z,13.54
2022-10-13T17:05:12.391Z,13.62
2022-10-13T17:07:20.667Z,13.50
2022-10-13T17:09:29.206Z,13.29
2022-10-13T17:11:42.857Z,13.26
2022-10-13T17:13:52.034Z,13.18
2022-10-13T17:16:00.759Z,13.13
2022-10-13T17:18:09.112Z,13.07
2022-10-13T17:20:16.952Z,13.05
2022-10-13T17:22:25.461Z,12.98
2022-10-13T17:24:35.560Z,13.01
2022-10-13T17:26:45.988Z,12.97
2022-10-13T17:28:54.250Z,12.95
2022-10-13T17:31:04.103Z,12.98
2022-10-13T17:33:12.740Z,12.94
2022-10-13T17:35:21.952Z,12.94
2022-10-13T17:37:29.791Z,12.93
2022-10-13T17:39:37.924Z,12.96
2022-10-13T17:41:48.659Z,13.06
2022-10-13T17:43:56.433Z,12.96
2022-10-13T17:46:36.368Z,12.94
2022-10-13T17:48:47.651Z,12.87
2022-10-13T17:50:57.219Z,12.92
2022-10-13T17:53:05.589Z,12.95
2022-10-13T17:55:13.795Z,12.90
2022-10-13T17:57:24.947Z,12.86
2022-10-13T17:59:38.746Z,12.99
2022-10-13T18:01:48.763Z,13.00
2022-10-13T18:03:59.252Z,12.98
2022-10-13T18:06:12.754Z,12.95
2022-10-13T18:08:22.496Z,12.89
2022-10-13T18:10:40.790Z,12.99
2022-10-13T18:13:04.647Z,12.97
2022-10-13T18:15:13.393Z,12.92
2022-10-13T18:17:21.890Z,12.88
2022-10-13T18:19:40.508Z,12.91
2022-10-13T18:21:50.462Z,12.93
2022-10-13T18:23:59.827Z,12.92
2022-10-13T18:26:12.110Z,12.84
2022-10-13T18:28:30.657Z,12.85
2022-10-13T18:30:40.085Z,12.82
2022-10-13T18:32:51.067Z,12.77
2022-10-13T18:35:00.489Z,12.79
2022-10-13T18:37:08.692Z,12.78
2022-10-13T18:39:20.450Z,12.73
2022-10-13T18:41:31.820Z,12.74
2022-10-13T18:43:46.285Z,12.68
2022-10-13T18:46:05.112Z,12.71
2022-10-13T18:48:13.490Z,12.72
2022-10-13T18:50:22.020Z,12.70
2022-10-13T18:52:30.345Z,12.69
2022-10-13T18:54:38.590Z,12.61
2022-10-13T18:56:47.519Z,12.62
2022-10-13T18:59:00.095Z,12.64
2022-10-13T19:01:13.359Z,12.70
2022-10-13T19:03:21.446Z,12.66
2022-10-13T19:05:29.718Z,12.62
2022-10-13T19:07:39.143Z,12.60
2022-10-13T19:09:48.043Z,12.56
2022-10-13T19:11:58.573Z,12.56
2022-10-13T19:14:11.505Z,12.53
2022-10-13T19:16:21.916Z,12.51
2022-10-13T19:18:30.592Z,12.50
2022-10-13T19:20:39.215Z,12.48
2022-10-13T19:22:47.496Z,12.51
2022-10-13T19:24:57.147Z,12.52
2022-10-13T19:27:07.758Z,12.46
2022-10-13T19:29:20.103Z,12.47
2022-10-13T19:31:30.757Z,12.52
2022-10-13T19:33:44.744Z,12.52
2022-10-13T19:35:55.557Z,12.49
2022-10-13T19:38:03.767Z,12.45
2022-10-13T19:40:12.482Z,12.44
2022-10-13T19:42:20.992Z,12.41
2022-10-13T19:44:31.966Z,12.44
2022-10-13T19:46:40.341Z,12.44
2022-10-13T19:48:49.257Z,12.41
2022-10-13T19:50:57.313Z,12.43
2022-10-13T19:53:06.046Z,12.42
2022-10-13T19:55:24.224Z,12.38
2022-10-13T19:57:33.410Z,12.37
2022-10-13T19:59:47.647Z,12.46
2022-10-13T20:01:56.819Z,12.43
2022-10-13T20:04:06.412Z,12.42
2022-10-13T20:06:17.301Z,12.42
2022-10-13T20:08:25.778Z,12.47
2022-10-13T20:10:34.387Z,12.49
2022-10-13T20:12:42.714Z,12.42
2022-10-13T20:14:53.901Z,12.38
2022-10-13T20:17:02.433Z,12.38
2022-10-13T20:19:10.962Z,12.33
2022-10-13T20:21:19.360Z,12.34
2022-10-13T20:23:27.476Z,12.34
2022-10-13T20:25:38.888Z,12.32
2022-10-13T20:27:47.609Z,12.31
2022-10-13T20:29:58.285Z,12.28
2022-10-13T20:32:08.085Z,12.23
2022-10-13T20:34:16.800Z,12.26
2022-10-13T20:36:25.153Z,12.24
2022-10-13T20:38:35.679Z,12.24
2022-10-13T20:40:44.009Z,12.22
2022-10-13T20:42:54.944Z,12.28
2022-10-13T20:45:06.125Z,12.22
2022-10-13T20:47:14.189Z,12.26
2022-10-13T20:49:23.495Z,12.23
2022-10-13T20:51:31.768Z,12.23
2022-10-13T20:53:40.994Z,12.25
2022-10-13T20:55:58.529Z,12.15
2022-10-13T20:58:06.498Z,12.11
2022-10-13T21:00:18.282Z,12.30
2022-10-13T21:02:26.274Z,12.29
2022-10-13T21:04:34.620Z,12.13
2022-10-13T21:06:43.747Z,12.10
2022-10-13T21:08:52.007Z,12.00
2022-10-13T21:11:05.433Z,11.91
2022-10-13T21:13:14.179Z,11.84
2022-10-13T21:15:25.198Z,11.77
2022-10-13T21:17:33.815Z,11.76
2022-10-13T21:19:41.993Z,11.82
2022-10-13T21:21:50.254Z,11.93
2022-10-13T21:24:00.352Z,11.83
2022-10-13T21:26:10.456Z,11.77
2022-10-13T21:28:18.983Z,11.79
2022-10-13T21:30:32.429Z,11.78
2022-10-13T21:32:40.651Z,11.87
2022-10-13T21:34:50.751Z,11.83
2022-10-13T21:36:59.980Z,11.91
2022-10-13T21:39:09.413Z,11.90
2022-10-13T21:41:18.719Z,11.88
2022-10-13T21:43:27.065Z,11.88
2022-10-13T21:45:38.079Z,11.94
2022-10-13T21:47:46.307Z,11.93
2022-10-13T21:49:56.722Z,11.90
2022-10-13T21:52:05.271Z,11.88
2022-10-13T21:54:15.597Z,11.83
2022-10-13T21:56:24.624Z,11.83
2022-10-13T21:58:33.198Z,11.96
2022-10-13T22:00:44.375Z,12.10
2022-10-13T22:02:53.011Z,12.00
2022-10-13T22:05:01.672Z,12.07
2022-10-13T22:07:10.324Z,12.10
2022-10-13T22:09:18.928Z,12.08
2022-10-13T22:11:29.776Z,12.00
2022-10-13T22:13:40.251Z,11.99
2022-10-13T22:15:52.640Z,11.92
2022-10-13T22:18:02.035Z,11.89
2022-10-13T22:20:11.403Z,11.82
2022-10-13T22:22:20.084Z,11.77
2022-10-13T22:24:28.532Z,11.72
2022-10-13T22:26:38.493Z,11.72
2022-10-13T22:28:48.388Z,11.72
2022-10-13T22:30:59.877Z,11.74
2022-10-13T22:33:08.432Z,11.76
2022-10-13T22:35:16.697Z,11.79
2022-10-13T22:37:24.861Z,11.71
2022-10-13T22:39:33.617Z,11.73
2022-10-13T22:41:49.513Z,11.73
2022-10-13T22:43:59.200Z,11.76
2022-10-13T22:46:10.345Z,11.79
2022-10-13T22:48:18.769Z,11.77
2022-10-13T22:50:27.272Z,11.79
2022-10-13T22:52:35.703Z,11.88
2022-10-13T22:54:43.910Z,11.83
2022-10-13T22:56:53.578Z,11.78
2022-10-13T22:59:03.463Z,11.70
2022-10-13T23:01:16.760Z,11.69
2022-10-13T23:03:25.068Z,11.70
2022-10-13T23:05:35.354Z,11.71
2022-10-13T23:07:43.456Z,11.69
2022-10-13T23:09:51.725Z,11.65
2022-10-13T23:12:00.147Z,11.63
2022-10-13T23:14:09.417Z,11.65
2022-10-13T23:16:22.062Z,11.63
2022-10-13T23:18:30.426Z,11.63
2022-10-13T23:20:43.149Z,11.71
2022-10-13T23:22:51.322Z,11.68
2022-10-13T23:24:59.549Z,11.62
2022-10-13T23:27:07.996Z,11.65
2022-10-13T23:29:16.312Z,11.69
2022-10-13T23:34:14.943Z,11.77
2022-10-13T23:36:28.073Z,11.74
2022-10-13T23:38:38.648Z,11.66
2022-10-13T23:40:48.098Z,11.62
2022-10-13T23:42:56.185Z,11.65
2022-10-13T23:45:03.997Z,11.63
2022-10-13T23:47:12.085Z,11.60
2022-10-13T23:49:20.103Z,11.61
2022-10-13T23:51:30.732Z,11.62
2022-10-13T23:53:40.878Z,11.65
2022-10-13T23:55:49.104Z,11.65
2022-10-13T23:57:58.579Z,11.61
